Anzahl Datensätze: 143
min. Temperatur: -4.0 °C
max. Temperatur: 1.9 °C
max. Windgeschwindigkeit: 23.0 km/h
Niederschlagsumme: 0.0 mm
| Datum |
Zeit |
Temp °C |
Feuchte % |
Taupunkt °C |
Luftdruck hPa |
Wind km/h |
Windrichtung |
Strahlung w/m² |
Niederschlag mm |
|---|---|---|---|---|---|---|---|---|---|
| 11.01.2026 | 00:00 | -1.4 | 83 | -4.0 | 1018.4 | 1.1 | N | 0 | 0.0 |
| 11.01.2026 | 00:10 | -1.1 | 79 | -4.2 | 1018.5 | 2.5 | NNW | 0 | 0.0 |
| 11.01.2026 | 00:20 | -0.8 | 81 | -3.6 | 1018.6 | 12.6 | SSO | 0 | 0.0 |
| 11.01.2026 | 00:30 | -1.0 | 79 | -4.2 | 1018.6 | 2.9 | N | 0 | 0.0 |
| 11.01.2026 | 00:40 | -0.8 | 79 | -4.0 | 1018.7 | 7.6 | NO | 0 | 0.0 |
| 11.01.2026 | 00:50 | -0.9 | 78 | -4.3 | 1019.0 | 8.3 | N | 0 | 0.0 |
| 11.01.2026 | 01:00 | -0.9 | 77 | -4.4 | 1019.1 | 5.4 | NNW | 0 | 0.0 |
| 11.01.2026 | 01:10 | -1.1 | 78 | -4.3 | 1019.2 | 5.4 | NNW | 0 | 0.0 |
| 11.01.2026 | 01:20 | -1.2 | 79 | -4.3 | 1019.4 | 1.4 | NW | 0 | 0.0 |
| 11.01.2026 | 01:30 | -1.2 | 80 | -4.3 | 1019.5 | 2.9 | NNW | 0 | 0.0 |
| 11.01.2026 | 01:41 | -1.2 | 80 | -4.3 | 1019.5 | 12.2 | N | 0 | 0.0 |
| 11.01.2026 | 01:51 | -1.2 | 80 | -4.3 | 1019.6 | 1.8 | N | 0 | 0.0 |
| 11.01.2026 | 02:01 | -1.2 | 80 | -4.2 | 1020.0 | 1.8 | WSW | 0 | 0.0 |
| 11.01.2026 | 02:11 | -1.2 | 81 | -4.0 | 1020.1 | 9.7 | NNW | 0 | 0.0 |
| 11.01.2026 | 02:21 | -1.3 | 81 | -4.1 | 1020.3 | 8.3 | N | 0 | 0.0 |
| 11.01.2026 | 02:31 | -1.4 | 82 | -4.0 | 1020.6 | 14.4 | N | 0 | 0.0 |
| 11.01.2026 | 02:41 | -1.3 | 82 | -4.0 | 1020.6 | 7.2 | NNO | 0 | 0.0 |
| 11.01.2026 | 02:51 | -1.4 | 82 | -4.0 | 1020.8 | 14.8 | NNW | 0 | 0.0 |
| 11.01.2026 | 03:01 | -1.5 | 83 | -3.9 | 1020.8 | 13.0 | NNW | 0 | 0.0 |
| 11.01.2026 | 03:11 | -1.2 | 81 | -4.1 | 1020.9 | 10.1 | NNW | 0 | 0.0 |
| 11.01.2026 | 03:21 | -1.0 | 79 | -4.1 | 1021.0 | 5.4 | N | 0 | 0.0 |
| 11.01.2026 | 03:31 | -0.8 | 79 | -4.0 | 1021.0 | 4.0 | WSW | 0 | 0.0 |
| 11.01.2026 | 03:41 | -0.9 | 81 | -3.7 | 1021.1 | 4.3 | WNW | 0 | 0.0 |
| 11.01.2026 | 03:51 | -0.9 | 80 | -3.8 | 1021.3 | 1.1 | S | 0 | 0.0 |
| 11.01.2026 | 04:01 | -1.0 | 81 | -4.0 | 1021.2 | 3.2 | NNO | 0 | 0.0 |
| 11.01.2026 | 04:11 | -0.9 | 84 | -3.3 | 1021.4 | 6.8 | WNW | 0 | 0.0 |
| 11.01.2026 | 04:21 | -0.8 | 87 | -2.8 | 1021.3 | 3.6 | N | 0 | 0.0 |
| 11.01.2026 | 04:31 | -1.1 | 83 | -3.7 | 1021.4 | 7.9 | NNO | 0 | 0.0 |
| 11.01.2026 | 04:41 | -0.9 | 86 | -3.0 | 1021.5 | 2.2 | W | 0 | 0.0 |
| 11.01.2026 | 04:51 | -0.8 | 88 | -2.6 | 1021.8 | 7.6 | NNO | 0 | 0.0 |
| 11.01.2026 | 05:01 | -0.8 | 87 | -2.7 | 1021.8 | 2.5 | NNO | 0 | 0.0 |
| 11.01.2026 | 05:11 | -0.8 | 87 | -2.6 | 1021.8 | 2.2 | N | 0 | 0.0 |
| 11.01.2026 | 05:21 | -0.9 | 87 | -2.8 | 1021.9 | 2.9 | WSW | 0 | 0.0 |
| 11.01.2026 | 05:31 | -0.8 | 86 | -2.8 | 1021.9 | 3.6 | NW | 0 | 0.0 |
| 11.01.2026 | 05:41 | -0.9 | 87 | -2.8 | 1022.1 | 7.9 | SSO | 0 | 0.0 |
| 11.01.2026 | 05:51 | -1.0 | 87 | -2.9 | 1022.2 | 6.8 | S | 0 | 0.0 |
| 11.01.2026 | 06:01 | -0.9 | 88 | -2.7 | 1022.3 | 1.8 | SSW | 0 | 0.0 |
| 11.01.2026 | 06:11 | -0.8 | 88 | -2.6 | 1022.3 | 2.5 | W | 0 | 0.0 |
| 11.01.2026 | 06:21 | -0.9 | 88 | -2.6 | 1022.4 | 9.0 | S | 0 | 0.0 |
| 11.01.2026 | 06:31 | -0.8 | 88 | -2.6 | 1022.4 | 6.8 | SSW | 0 | 0.0 |
| 11.01.2026 | 06:42 | -0.9 | 88 | -2.7 | 1022.8 | 1.8 | S | 0 | 0.0 |
| 11.01.2026 | 06:52 | -1.0 | 88 | -2.7 | 1023.0 | 4.0 | SO | 0 | 0.0 |
| 11.01.2026 | 07:02 | -0.9 | 87 | -2.9 | 1022.9 | 9.0 | S | 0 | 0.0 |
| 11.01.2026 | 07:12 | -0.9 | 86 | -2.9 | 1023.0 | 1.8 | SW | 0 | 0.0 |
| 11.01.2026 | 07:22 | -0.9 | 85 | -3.1 | 1022.9 | 3.6 | OSO | 0 | 0.0 |
| 11.01.2026 | 07:32 | -0.9 | 86 | -3.1 | 1023.1 | 7.9 | WSW | 0 | 0.0 |
| 11.01.2026 | 07:42 | -0.7 | 86 | -2.8 | 1023.1 | 3.2 | N | 0 | 0.0 |
| 11.01.2026 | 07:52 | -0.8 | 86 | -2.9 | 1023.1 | 9.0 | SSW | 0 | 0.0 |
| 11.01.2026 | 08:02 | -0.8 | 83 | -3.3 | 1023.4 | 4.3 | WNW | 0 | 0.0 |
| 11.01.2026 | 08:12 | -0.7 | 82 | -3.5 | 1023.4 | 4.3 | SSW | 0 | 0.0 |
| 11.01.2026 | 08:22 | -0.6 | 83 | -3.1 | 1023.6 | 11.5 | S | 2 | 0.0 |
| 11.01.2026 | 08:32 | -0.7 | 85 | -3.0 | 1023.6 | 6.8 | SSW | 3 | 0.0 |
| 11.01.2026 | 08:42 | -0.7 | 84 | -3.0 | 1023.8 | 10.1 | S | 4 | 0.0 |
| 11.01.2026 | 08:52 | -0.8 | 84 | -3.1 | 1023.9 | 5.4 | S | 6 | 0.0 |
| 11.01.2026 | 09:02 | -0.8 | 85 | -3.1 | 1023.9 | 4.7 | S | 9 | 0.0 |
| 11.01.2026 | 09:12 | -0.8 | 85 | -3.0 | 1023.8 | 14.0 | S | 10 | 0.0 |
| 11.01.2026 | 09:22 | -0.7 | 84 | -3.0 | 1024.0 | 1.8 | WSW | 11 | 0.0 |
| 11.01.2026 | 09:32 | -0.5 | 85 | -2.8 | 1024.1 | 9.7 | SSW | 13 | 0.0 |
| 11.01.2026 | 09:42 | -0.8 | 85 | -3.0 | 1024.3 | 8.6 | S | 13 | 0.0 |
| 11.01.2026 | 09:52 | -0.8 | 86 | -2.9 | 1024.4 | 5.4 | SSO | 13 | 0.0 |
| 11.01.2026 | 10:02 | -0.6 | 85 | -2.8 | 1024.6 | 7.6 | S | 19 | 0.0 |
| 11.01.2026 | 10:12 | -0.7 | 85 | -2.9 | 1024.7 | 4.7 | SSW | 22 | 0.0 |
| 11.01.2026 | 10:22 | -0.5 | 84 | -2.9 | 1024.7 | 2.2 | W | 25 | 0.0 |
| 11.01.2026 | 10:32 | -0.8 | 84 | -3.2 | 1024.8 | 3.6 | NNW | 42 | 0.0 |
| 11.01.2026 | 10:42 | -0.8 | 83 | -3.3 | 1024.7 | 2.5 | NNO | 62 | 0.0 |
| 11.01.2026 | 10:52 | -0.8 | 82 | -3.4 | 1024.9 | 2.2 | NNO | 78 | 0.0 |
| 11.01.2026 | 11:02 | -0.4 | 83 | -3.0 | 1024.8 | 1.8 | N | 78 | 0.0 |
| 11.01.2026 | 11:23 | 0.0 | 82 | -2.7 | 1024.8 | 1.8 | WSW | 150 | 0.0 |
| 11.01.2026 | 11:33 | 0.1 | 81 | -2.8 | 1024.7 | 2.5 | N | 160 | 0.0 |
| 11.01.2026 | 11:43 | 0.6 | 78 | -2.9 | 1024.4 | 5.4 | S | 400 | 0.0 |
| 11.01.2026 | 11:53 | 0.4 | 79 | -2.8 | 1024.4 | 2.9 | S | 345 | 0.0 |
| 11.01.2026 | 12:03 | 0.7 | 76 | -3.0 | 1024.3 | 11.5 | SSO | 312 | 0.0 |
| 11.01.2026 | 12:13 | 0.6 | 76 | -3.2 | 1024.3 | 4.7 | S | 300 | 0.0 |
| 11.01.2026 | 12:23 | 0.7 | 77 | -2.8 | 1024.3 | 5.4 | S | 291 | 0.0 |
| 11.01.2026 | 12:33 | 1.1 | 77 | -2.4 | 1024.2 | 0.7 | SSW | 289 | 0.0 |
| 11.01.2026 | 12:43 | 1.2 | 76 | -2.5 | 1024.1 | 5.8 | S | 289 | 0.0 |
| 11.01.2026 | 12:53 | 1.1 | 74 | -3.0 | 1023.9 | 3.2 | SSO | 290 | 0.0 |
| 11.01.2026 | 13:03 | 1.6 | 77 | -2.0 | 1023.7 | 7.2 | SSO | 303 | 0.0 |
| 11.01.2026 | 13:13 | 1.7 | 76 | -2.1 | 1023.7 | 2.2 | SSO | 320 | 0.0 |
| 11.01.2026 | 13:23 | 1.1 | 77 | -2.5 | 1023.8 | 7.6 | S | 346 | 0.0 |
| 11.01.2026 | 13:33 | 1.9 | 73 | -2.4 | 1023.4 | 7.2 | S | 345 | 0.0 |
| 11.01.2026 | 13:43 | 1.9 | 73 | -2.4 | 1023.4 | 4.0 | S | 338 | 0.0 |
| 11.01.2026 | 13:53 | 1.3 | 75 | -2.6 | 1023.5 | 8.3 | S | 327 | 0.0 |
| 11.01.2026 | 14:03 | 1.6 | 73 | -2.7 | 1023.4 | 10.1 | S | 310 | 0.0 |
| 11.01.2026 | 14:13 | 1.1 | 73 | -3.2 | 1023.3 | 2.2 | SSW | 298 | 0.0 |
| 11.01.2026 | 14:23 | 1.6 | 74 | -2.5 | 1023.0 | 2.2 | N | 280 | 0.0 |
| 11.01.2026 | 14:33 | 1.0 | 78 | -2.4 | 1023.0 | 6.5 | S | 259 | 0.0 |
| 11.01.2026 | 14:43 | 0.8 | 73 | -3.4 | 1022.8 | 7.2 | SSO | 230 | 0.0 |
| 11.01.2026 | 14:53 | 1.0 | 72 | -3.4 | 1022.7 | 5.8 | S | 208 | 0.0 |
| 11.01.2026 | 15:03 | 0.9 | 73 | -3.3 | 1022.9 | 2.5 | S | 191 | 0.0 |
| 11.01.2026 | 15:13 | 1.4 | 72 | -3.0 | 1022.6 | 6.1 | S | 176 | 0.0 |
| 11.01.2026 | 15:23 | 0.9 | 73 | -3.3 | 1022.7 | 3.6 | SSO | 159 | 0.0 |
| 11.01.2026 | 15:34 | 0.8 | 76 | -3.0 | 1023.0 | 6.5 | S | 147 | 0.0 |
| 11.01.2026 | 15:44 | 1.3 | 72 | -3.3 | 1023.0 | 1.4 | S | 131 | 0.0 |
| 11.01.2026 | 15:54 | 1.1 | 69 | -4.0 | 1023.1 | 5.4 | S | 113 | 0.0 |
| 11.01.2026 | 16:04 | 0.3 | 77 | -3.3 | 1023.5 | 5.4 | S | 89 | 0.0 |
| 11.01.2026 | 16:14 | 0.4 | 77 | -3.1 | 1023.6 | 5.4 | S | 49 | 0.0 |
| 11.01.2026 | 16:24 | -0.2 | 76 | -3.8 | 1023.8 | 1.8 | NNO | 16 | 0.0 |
| 11.01.2026 | 16:34 | -0.2 | 76 | -3.9 | 1023.7 | 5.4 | S | 11 | 0.0 |
| 11.01.2026 | 16:44 | -0.5 | 77 | -4.0 | 1023.6 | 2.2 | SSW | 8 | 0.0 |
| 11.01.2026 | 16:54 | -0.5 | 76 | -4.3 | 1023.7 | 3.6 | N | 4 | 0.0 |
| 11.01.2026 | 17:04 | -0.6 | 74 | -4.6 | 1023.7 | 5.8 | S | 2 | 0.0 |
| 11.01.2026 | 17:14 | -0.8 | 77 | -4.3 | 1023.8 | 2.9 | S | 0 | 0.0 |
| 11.01.2026 | 17:24 | -1.1 | 77 | -4.5 | 1024.1 | 6.8 | SSW | 0 | 0.0 |
| 11.01.2026 | 17:34 | -1.3 | 77 | -4.8 | 1024.2 | 2.5 | NNW | 0 | 0.0 |
| 11.01.2026 | 17:44 | -1.4 | 78 | -4.8 | 1024.3 | 1.8 | N | 0 | 0.0 |
| 11.01.2026 | 17:54 | -1.4 | 78 | -4.7 | 1024.1 | 1.1 | NO | 0 | 0.0 |
| 11.01.2026 | 18:04 | -1.6 | 82 | -4.3 | 1024.1 | 1.4 | NNO | 0 | 0.0 |
| 11.01.2026 | 18:14 | -2.1 | 82 | -4.7 | 1024.1 | 2.2 | NO | 0 | 0.0 |
| 11.01.2026 | 18:24 | -2.0 | 80 | -4.9 | 1024.2 | 1.1 | N | 0 | 0.0 |
| 11.01.2026 | 18:34 | -2.0 | 80 | -4.9 | 1024.3 | 3.6 | NNW | 0 | 0.0 |
| 11.01.2026 | 18:44 | -2.2 | 83 | -4.8 | 1024.3 | 3.6 | NNW | 0 | 0.0 |
| 11.01.2026 | 18:54 | -2.3 | 84 | -4.7 | 1024.3 | 1.1 | N | 0 | 0.0 |
| 11.01.2026 | 19:04 | -2.4 | 85 | -4.6 | 1024.4 | 0.7 | N | 0 | 0.0 |
| 11.01.2026 | 19:14 | -2.4 | 83 | -5.0 | 1024.4 | 2.9 | NNO | 0 | 0.0 |
| 11.01.2026 | 19:24 | -2.5 | 83 | -5.0 | 1024.6 | 2.5 | N | 0 | 0.0 |
| 11.01.2026 | 19:34 | -2.5 | 83 | -5.0 | 1024.6 | 2.5 | NNO | 0 | 0.0 |
| 11.01.2026 | 19:44 | -2.6 | 82 | -5.2 | 1024.6 | 0.4 | N | 0 | 0.0 |
| 11.01.2026 | 19:54 | -2.5 | 80 | -5.4 | 1024.6 | 0.7 | NO | 0 | 0.0 |
| 11.01.2026 | 20:04 | -2.5 | 82 | -5.1 | 1024.6 | 1.4 | N | 0 | 0.0 |
| 11.01.2026 | 20:14 | -2.6 | 84 | -5.0 | 1024.6 | 1.4 | N | 0 | 0.0 |
| 11.01.2026 | 20:24 | -2.8 | 84 | -5.1 | 1024.8 | 2.5 | NNO | 0 | 0.0 |
| 11.01.2026 | 20:35 | -3.3 | 84 | -5.5 | 1025.1 | 2.5 | NNO | 0 | 0.0 |
| 11.01.2026 | 20:45 | -3.1 | 84 | -5.3 | 1025.1 | 7.9 | SO | 0 | 0.0 |
| 11.01.2026 | 20:55 | -3.2 | 85 | -5.4 | 1025.0 | 3.6 | N | 0 | 0.0 |
| 11.01.2026 | 21:05 | -3.4 | 85 | -5.6 | 1025.2 | 1.4 | NNO | 0 | 0.0 |
| 11.01.2026 | 21:15 | -3.2 | 84 | -5.4 | 1025.2 | 1.1 | NO | 0 | 0.0 |
| 11.01.2026 | 21:25 | -2.9 | 85 | -5.0 | 1025.4 | 4.0 | SSW | 0 | 0.0 |
| 11.01.2026 | 21:35 | -3.5 | 86 | -5.5 | 1025.7 | 2.5 | N | 0 | 0.0 |
| 11.01.2026 | 21:45 | -3.6 | 86 | -5.5 | 1025.8 | 2.2 | NO | 0 | 0.0 |
| 11.01.2026 | 21:55 | -3.6 | 86 | -5.6 | 1025.4 | 2.2 | NNO | 0 | 0.0 |
| 11.01.2026 | 22:05 | -3.5 | 84 | -5.9 | 1025.1 | 2.2 | N | 0 | 0.0 |
| 11.01.2026 | 22:15 | -3.8 | 85 | -5.9 | 1025.1 | 1.4 | NO | 0 | 0.0 |
| 11.01.2026 | 22:25 | -3.6 | 85 | -5.9 | 1025.2 | 1.8 | NNO | 0 | 0.0 |
| 11.01.2026 | 22:35 | -3.2 | 84 | -5.5 | 1025.3 | 4.0 | S | 0 | 0.0 |
| 11.01.2026 | 22:45 | -3.3 | 84 | -5.7 | 1025.1 | 1.1 | NO | 0 | 0.0 |
| 11.01.2026 | 22:55 | -3.5 | 84 | -5.9 | 1024.9 | 4.0 | NNO | 0 | 0.0 |
| 11.01.2026 | 23:05 | -3.3 | 84 | -5.6 | 1024.9 | 1.1 | S | 0 | 0.0 |
| 11.01.2026 | 23:15 | -3.4 | 84 | -5.8 | 1025.0 | 1.4 | N | 0 | 0.0 |
| 11.01.2026 | 23:25 | -3.8 | 84 | -6.1 | 1025.0 | 3.6 | NNO | 0 | 0.0 |
| 11.01.2026 | 23:35 | -3.8 | 83 | -6.2 | 1025.0 | 1.8 | N | 0 | 0.0 |
| 11.01.2026 | 23:45 | -4.0 | 84 | -6.3 | 1025.2 | 1.1 | NNO | 0 | 0.0 |
| 11.01.2026 | 23:55 | -3.6 | 83 | -6.0 | 1025.2 | 0.7 | N | 0 | 0.0 |